sensor_id;sensor_type;location;lat;lon;timestamp;pressure;altitude;pressure_sealevel;temperature;humidity
58979;BME280;44763;50.464;30.612;2022-10-31T00:01:13;99961.50;;;10.12;80.09
58979;BME280;44763;50.464;30.612;2022-10-31T00:03:41;99952.05;;;10.09;80.30
58979;BME280;44763;50.464;30.612;2022-10-31T00:06:08;99958.08;;;10.07;80.48
58979;BME280;44763;50.464;30.612;2022-10-31T00:08:36;99964.11;;;10.05;80.68
58979;BME280;44763;50.464;30.612;2022-10-31T00:11:07;99954.16;;;10.03;80.81
58979;BME280;44763;50.464;30.612;2022-10-31T00:13:35;99955.68;;;10.02;80.87
58979;BME280;44763;50.464;30.612;2022-10-31T00:16:03;99965.52;;;10.01;80.97
58979;BME280;44763;50.464;30.612;2022-10-31T00:18:31;99957.23;;;10.00;81.09
58979;BME280;44763;50.464;30.612;2022-10-31T00:21:01;99911.72;;;9.67;81.32
58979;BME280;44763;50.464;30.612;2022-10-31T00:23:30;99959.02;;;9.93;81.55
58979;BME280;44763;50.464;30.612;2022-10-31T00:26:01;99963.27;;;9.87;81.77
58979;BME280;44763;50.464;30.612;2022-10-31T00:28:30;99955.10;;;9.89;81.82
58979;BME280;44763;50.464;30.612;2022-10-31T00:31:03;99962.23;;;9.88;81.96
58979;BME280;44763;50.464;30.612;2022-10-31T00:33:36;99956.99;;;9.84;82.26
58979;BME280;44763;50.464;30.612;2022-10-31T00:36:05;99970.37;;;9.80;82.59
58979;BME280;44763;50.464;30.612;2022-10-31T00:38:34;99965.75;;;9.78;82.75
58979;BME280;44763;50.464;30.612;2022-10-31T00:41:02;99971.59;;;9.78;82.83
58979;BME280;44763;50.464;30.612;2022-10-31T00:43:30;99957.84;;;9.74;83.03
58979;BME280;44763;50.464;30.612;2022-10-31T00:45:56;99949.02;;;9.73;83.11
58979;BME280;44763;50.464;30.612;2022-10-31T00:48:26;99967.20;;;9.70;83.78
58979;BME280;44763;50.464;30.612;2022-10-31T00:50:52;99960.77;;;9.68;83.60
58979;BME280;44763;50.464;30.612;2022-10-31T00:53:19;99956.96;;;9.67;83.72
58979;BME280;44763;50.464;30.612;2022-10-31T00:55:45;99943.14;;;9.67;83.71
58979;BME280;44763;50.464;30.612;2022-10-31T00:58:11;99943.84;;;9.65;83.77
58979;BME280;44763;50.464;30.612;2022-10-31T01:00:38;99946.69;;;9.64;83.88
58979;BME280;44763;50.464;30.612;2022-10-31T01:03:05;99939.22;;;9.63;84.08
58979;BME280;44763;50.464;30.612;2022-10-31T01:05:31;99938.89;;;9.62;84.07
58979;BME280;44763;50.464;30.612;2022-10-31T01:07:58;99944.09;;;9.60;84.38
58979;BME280;44763;50.464;30.612;2022-10-31T01:10:26;99945.50;;;9.55;84.43
58979;BME280;44763;50.464;30.612;2022-10-31T01:12:52;99951.12;;;9.57;84.48
58979;BME280;44763;50.464;30.612;2022-10-31T01:15:21;99943.14;;;9.57;84.54
58979;BME280;44763;50.464;30.612;2022-10-31T01:17:49;99944.28;;;9.58;84.79
58979;BME280;44763;50.464;30.612;2022-10-31T01:20:15;99941.58;;;9.51;84.69
58979;BME280;44763;50.464;30.612;2022-10-31T01:22:44;99946.83;;;9.55;84.78
58979;BME280;44763;50.464;30.612;2022-10-31T01:25:12;99950.19;;;9.53;84.80
58979;BME280;44763;50.464;30.612;2022-10-31T01:27:38;99951.38;;;9.51;84.94
58979;BME280;44763;50.464;30.612;2022-10-31T01:30:07;99949.75;;;9.50;85.07
58979;BME280;44763;50.464;30.612;2022-10-31T01:32:34;99946.13;;;9.47;85.31
58979;BME280;44763;50.464;30.612;2022-10-31T01:35:01;99937.33;;;9.46;85.33
58979;BME280;44763;50.464;30.612;2022-10-31T01:37:28;99944.98;;;9.45;85.47
58979;BME280;44763;50.464;30.612;2022-10-31T01:39:54;99947.45;;;9.47;85.49
58979;BME280;44763;50.464;30.612;2022-10-31T01:42:22;99943.98;;;9.46;85.39
58979;BME280;44763;50.464;30.612;2022-10-31T01:45:00;99955.19;;;9.52;85.28
58979;BME280;44763;50.464;30.612;2022-10-31T01:47:40;99949.56;;;9.51;85.33
58979;BME280;44763;50.464;30.612;2022-10-31T01:50:11;99951.97;;;9.46;85.38
58979;BME280;44763;50.464;30.612;2022-10-31T01:52:44;99950.81;;;9.45;85.53
58979;BME280;44763;50.464;30.612;2022-10-31T01:55:29;99954.51;;;9.44;85.55
58979;BME280;44763;50.464;30.612;2022-10-31T01:58:08;99949.30;;;9.46;85.69
58979;BME280;44763;50.464;30.612;2022-10-31T02:00:37;99956.77;;;9.47;85.47
58979;BME280;44763;50.464;30.612;2022-10-31T02:03:04;99947.79;;;9.48;85.45
58979;BME280;44763;50.464;30.612;2022-10-31T02:05:32;99956.07;;;9.49;85.38
58979;BME280;44763;50.464;30.612;2022-10-31T02:08:30;99947.39;;;9.51;85.43
58979;BME280;44763;50.464;30.612;2022-10-31T02:10:56;99951.71;;;9.52;85.37
58979;BME280;44763;50.464;30.612;2022-10-31T02:13:23;99958.17;;;9.53;85.32
58979;BME280;44763;50.464;30.612;2022-10-31T02:15:53;99968.12;;;9.55;85.43
58979;BME280;44763;50.464;30.612;2022-10-31T02:18:24;99964.94;;;9.56;85.31
58979;BME280;44763;50.464;30.612;2022-10-31T02:32:21;99986.05;;;9.58;85.30
58979;BME280;44763;50.464;30.612;2022-10-31T02:37:57;99991.62;;;9.52;85.45
58979;BME280;44763;50.464;30.612;2022-10-31T02:40:30;99999.27;;;9.51;85.37
58979;BME280;44763;50.464;30.612;2022-10-31T02:43:29;100009.46;;;9.47;85.38
58979;BME280;44763;50.464;30.612;2022-10-31T02:48:43;100010.23;;;9.41;85.37
58979;BME280;44763;50.464;30.612;2022-10-31T02:51:11;100011.25;;;9.40;85.39
58979;BME280;44763;50.464;30.612;2022-10-31T02:53:38;100020.69;;;9.43;85.27
58979;BME280;44763;50.464;30.612;2022-10-31T02:58:43;100024.80;;;9.45;84.93
58979;BME280;44763;50.464;30.612;2022-10-31T03:01:26;100038.94;;;9.46;84.92
58979;BME280;44763;50.464;30.612;2022-10-31T03:06:49;100032.77;;;9.45;84.80
58979;BME280;44763;50.464;30.612;2022-10-31T03:09:55;100037.91;;;9.47;84.45
58979;BME280;44763;50.464;30.612;2022-10-31T03:12:30;100041.53;;;9.50;84.44
58979;BME280;44763;50.464;30.612;2022-10-31T03:17:36;100053.27;;;9.55;83.85
58979;BME280;44763;50.464;30.612;2022-10-31T03:20:06;100055.05;;;9.59;83.57
58979;BME280;44763;50.464;30.612;2022-10-31T03:22:38;100061.81;;;9.62;83.32
58979;BME280;44763;50.464;30.612;2022-10-31T03:25:07;100064.23;;;9.67;82.95
58979;BME280;44763;50.464;30.612;2022-10-31T03:27:37;100064.67;;;9.71;81.85
58979;BME280;44763;50.464;30.612;2022-10-31T03:30:07;100072.14;;;9.71;81.10
58979;BME280;44763;50.464;30.612;2022-10-31T03:32:40;100078.81;;;9.61;78.34
58979;BME280;44763;50.464;30.612;2022-10-31T03:35:09;100081.30;;;9.47;70.33
58979;BME280;44763;50.464;30.612;2022-10-31T03:37:39;100076.37;;;9.44;67.50
58979;BME280;44763;50.464;30.612;2022-10-31T03:40:12;100098.77;;;9.35;61.22
58979;BME280;44763;50.464;30.612;2022-10-31T03:42:43;100096.16;;;9.31;60.19
58979;BME280;44763;50.464;30.612;2022-10-31T03:45:14;100100.11;;;9.20;58.30
58979;BME280;44763;50.464;30.612;2022-10-31T07:51:05;100460.95;;;8.92;47.08
58979;BME280;44763;50.464;30.612;2022-10-31T07:53:36;100461.27;;;8.98;47.03
58979;BME280;44763;50.464;30.612;2022-10-31T07:56:14;100469.12;;;8.87;46.58
58979;BME280;44763;50.464;30.612;2022-10-31T07:58:41;100459.53;;;8.77;46.64
58979;BME280;44763;50.464;30.612;2022-10-31T08:01:07;100463.06;;;8.70;46.44
58979;BME280;44763;50.464;30.612;2022-10-31T08:03:36;100474.36;;;8.68;46.86
58979;BME280;44763;50.464;30.612;2022-10-31T08:06:21;100461.25;;;8.66;46.42
58979;BME280;44763;50.464;30.612;2022-10-31T08:08:58;100460.59;;;8.68;46.88
58979;BME280;44763;50.464;30.612;2022-10-31T08:11:26;100467.87;;;8.74;47.19
58979;BME280;44763;50.464;30.612;2022-10-31T08:13:52;100465.81;;;8.85;47.48
58979;BME280;44763;50.464;30.612;2022-10-31T08:16:20;100472.41;;;8.97;47.57
58979;BME280;44763;50.464;30.612;2022-10-31T08:18:51;100474.03;;;9.06;47.15
58979;BME280;44763;50.464;30.612;2022-10-31T08:21:19;100450.27;;;9.05;47.12
58979;BME280;44763;50.464;30.612;2022-10-31T08:23:47;100455.41;;;9.02;47.35
58979;BME280;44763;50.464;30.612;2022-10-31T08:26:14;100460.93;;;9.01;47.08
58979;BME280;44763;50.464;30.612;2022-10-31T08:28:40;100456.94;;;8.96;46.21
58979;BME280;44763;50.464;30.612;2022-10-31T08:31:08;100459.97;;;8.93;46.24
58979;BME280;44763;50.464;30.612;2022-10-31T08:33:38;100463.13;;;8.89;45.55
58979;BME280;44763;50.464;30.612;2022-10-31T08:36:07;100461.13;;;8.95;45.91
58979;BME280;44763;50.464;30.612;2022-10-31T08:38:47;100440.17;;;8.96;45.10
58979;BME280;44763;50.464;30.612;2022-10-31T08:41:17;100449.45;;;9.04;44.74
58979;BME280;44763;50.464;30.612;2022-10-31T08:43:43;100455.22;;;9.08;44.46
58979;BME280;44763;50.464;30.612;2022-10-31T08:46:10;100461.69;;;9.09;44.45
58979;BME280;44763;50.464;30.612;2022-10-31T08:48:36;100451.88;;;9.14;44.43
58979;BME280;44763;50.464;30.612;2022-10-31T08:51:03;100453.81;;;9.20;43.17
58979;BME280;44763;50.464;30.612;2022-10-31T08:53:30;100457.13;;;9.22;43.16
58979;BME280;44763;50.464;30.612;2022-10-31T08:56:16;100437.96;;;9.31;43.20
58979;BME280;44763;50.464;30.612;2022-10-31T08:58:42;100450.98;;;9.45;43.04
58979;BME280;44763;50.464;30.612;2022-10-31T09:01:08;100448.59;;;9.54;42.75
58979;BME280;44763;50.464;30.612;2022-10-31T09:03:35;100452.58;;;9.54;42.13
58979;BME280;44763;50.464;30.612;2022-10-31T09:06:02;100440.91;;;9.59;41.69
58979;BME280;44763;50.464;30.612;2022-10-31T09:08:32;100449.70;;;9.60;42.26
58979;BME280;44763;50.464;30.612;2022-10-31T09:11:00;100454.03;;;9.61;41.97
58979;BME280;44763;50.464;30.612;2022-10-31T09:13:43;100449.48;;;9.65;42.12
58979;BME280;44763;50.464;30.612;2022-10-31T09:16:28;100458.94;;;9.68;41.22
58979;BME280;44763;50.464;30.612;2022-10-31T09:18:55;100459.79;;;9.68;40.32
58979;BME280;44763;50.464;30.612;2022-10-31T09:21:23;100452.28;;;9.68;40.79
58979;BME280;44763;50.464;30.612;2022-10-31T09:23:52;100446.27;;;9.70;40.64
58979;BME280;44763;50.464;30.612;2022-10-31T09:26:19;100456.44;;;9.70;40.62
58979;BME280;44763;50.464;30.612;2022-10-31T09:28:58;100456.91;;;9.74;40.69
58979;BME280;44763;50.464;30.612;2022-10-31T09:31:25;100439.61;;;9.74;39.78
58979;BME280;44763;50.464;30.612;2022-10-31T09:33:54;100458.04;;;9.75;40.31
58979;BME280;44763;50.464;30.612;2022-10-31T09:36:30;100456.01;;;9.82;39.86
58979;BME280;44763;50.464;30.612;2022-10-31T09:38:57;100453.13;;;9.87;38.98
58979;BME280;44763;50.464;30.612;2022-10-31T09:47:10;100446.60;;;9.90;37.93
58979;BME280;44763;50.464;30.612;2022-10-31T09:50:00;100447.89;;;9.94;38.25
58979;BME280;44763;50.464;30.612;2022-10-31T09:55:04;100447.56;;;10.12;39.20
58979;BME280;44763;50.464;30.612;2022-10-31T09:57:35;100437.09;;;10.25;38.33
58979;BME280;44763;50.464;30.612;2022-10-31T10:00:07;100451.62;;;10.38;37.63
58979;BME280;44763;50.464;30.612;2022-10-31T10:05:53;100446.73;;;10.45;36.74
58979;BME280;44763;50.464;30.612;2022-10-31T10:08:25;100451.19;;;10.34;36.34
58979;BME280;44763;50.464;30.612;2022-10-31T10:14:24;100457.85;;;10.34;37.18
58979;BME280;44763;50.464;30.612;2022-10-31T10:22:49;100452.72;;;10.28;36.25
58979;BME280;44763;50.464;30.612;2022-10-31T10:25:40;100437.60;;;10.25;36.29
58979;BME280;44763;50.464;30.612;2022-10-31T10:31:06;100435.17;;;10.19;36.17
58979;BME280;44763;50.464;30.612;2022-10-31T10:36:33;100440.84;;;10.16;35.56
58979;BME280;44763;50.464;30.612;2022-10-31T10:39:04;100441.89;;;10.11;34.51
58979;BME280;44763;50.464;30.612;2022-10-31T10:41:43;100446.92;;;10.10;34.44
58979;BME280;44763;50.464;30.612;2022-10-31T10:44:11;100456.08;;;10.07;34.47
58979;BME280;44763;50.464;30.612;2022-10-31T10:46:44;100456.59;;;10.07;34.64
58979;BME280;44763;50.464;30.612;2022-10-31T10:49:47;100462.43;;;10.06;35.19
58979;BME280;44763;50.464;30.612;2022-10-31T10:52:31;100457.80;;;10.04;35.50
58979;BME280;44763;50.464;30.612;2022-10-31T10:55:15;100460.92;;;10.08;35.71
58979;BME280;44763;50.464;30.612;2022-10-31T10:57:55;100463.36;;;10.13;36.09
58979;BME280;44763;50.464;30.612;2022-10-31T11:00:44;100464.31;;;10.17;35.95
58979;BME280;44763;50.464;30.612;2022-10-31T11:03:14;100447.46;;;10.20;34.85
58979;BME280;44763;50.464;30.612;2022-10-31T11:05:55;100458.21;;;10.12;33.87
58979;BME280;44763;50.464;30.612;2022-10-31T11:08:31;100454.52;;;10.13;34.32
58979;BME280;44763;50.464;30.612;2022-10-31T11:11:13;100459.55;;;10.12;34.28
58979;BME280;44763;50.464;30.612;2022-10-31T11:13:41;100455.16;;;10.15;34.75
58979;BME280;44763;50.464;30.612;2022-10-31T11:16:12;100453.99;;;10.18;35.20
58979;BME280;44763;50.464;30.612;2022-10-31T11:19:20;100448.26;;;10.25;35.19
58979;BME280;44763;50.464;30.612;2022-10-31T11:21:50;100381.09;;;9.85;35.43
58979;BME280;44763;50.464;30.612;2022-10-31T11:24:18;100452.31;;;10.36;35.99
58979;BME280;44763;50.464;30.612;2022-10-31T11:26:50;100433.64;;;10.40;35.47
58979;BME280;44763;50.464;30.612;2022-10-31T11:29:22;100458.05;;;10.43;35.54
58979;BME280;44763;50.464;30.612;2022-10-31T11:31:54;100460.23;;;10.44;35.11
58979;BME280;44763;50.464;30.612;2022-10-31T11:34:29;100460.36;;;10.46;35.52
58979;BME280;44763;50.464;30.612;2022-10-31T11:37:13;100458.84;;;10.48;35.25
58979;BME280;44763;50.464;30.612;2022-10-31T11:39:46;100460.48;;;10.49;35.14
58979;BME280;44763;50.464;30.612;2022-10-31T11:42:16;100469.81;;;10.49;34.68
58979;BME280;44763;50.464;30.612;2022-10-31T11:44:43;100451.83;;;10.51;33.88
58979;BME280;44763;50.464;30.612;2022-10-31T11:47:16;100456.70;;;10.47;33.22
58979;BME280;44763;50.464;30.612;2022-10-31T11:49:45;100465.61;;;10.40;33.58
58979;BME280;44763;50.464;30.612;2022-10-31T11:52:20;100458.16;;;10.35;33.22
58979;BME280;44763;50.464;30.612;2022-10-31T11:55:01;100459.18;;;10.34;33.71
58979;BME280;44763;50.464;30.612;2022-10-31T11:57:33;100456.64;;;10.37;33.92
58979;BME280;44763;50.464;30.612;2022-10-31T12:00:28;100464.45;;;10.38;33.96
58979;BME280;44763;50.464;30.612;2022-10-31T12:06:05;100474.25;;;10.42;33.86
58979;BME280;44763;50.464;30.612;2022-10-31T12:08:35;100471.77;;;10.40;33.42
58979;BME280;44763;50.464;30.612;2022-10-31T12:11:22;100470.43;;;10.40;33.60
58979;BME280;44763;50.464;30.612;2022-10-31T12:17:16;100488.62;;;10.37;33.66
58979;BME280;44763;50.464;30.612;2022-10-31T12:26:48;100485.67;;;10.31;33.71
58979;BME280;44763;50.464;30.612;2022-10-31T12:31:51;100487.66;;;10.29;33.69
58979;BME280;44763;50.464;30.612;2022-10-31T12:34:41;100491.66;;;10.29;33.95
58979;BME280;44763;50.464;30.612;2022-10-31T12:57:48;100486.70;;;10.30;33.63
58979;BME280;44763;50.464;30.612;2022-10-31T13:00:15;100487.81;;;10.32;33.64
58979;BME280;44763;50.464;30.612;2022-10-31T13:02:53;100490.50;;;10.28;33.24
58979;BME280;44763;50.464;30.612;2022-10-31T13:13:57;100506.76;;;10.37;33.71
58979;BME280;44763;50.464;30.612;2022-10-31T13:16:32;100521.11;;;10.36;34.00
58979;BME280;44763;50.464;30.612;2022-10-31T13:19:18;100514.45;;;10.36;33.74
58979;BME280;44763;50.464;30.612;2022-10-31T13:22:06;100514.28;;;10.33;33.24
58979;BME280;44763;50.464;30.612;2022-10-31T13:30:21;100526.16;;;10.27;32.97
58979;BME280;44763;50.464;30.612;2022-10-31T13:32:57;100517.36;;;10.22;33.06
58979;BME280;44763;50.464;30.612;2022-10-31T13:35:41;100524.87;;;10.23;33.23
58979;BME280;44763;50.464;30.612;2022-10-31T13:38:14;100516.37;;;10.23;33.31
58979;BME280;44763;50.464;30.612;2022-10-31T13:41:04;100526.98;;;10.27;33.35
58979;BME280;44763;50.464;30.612;2022-10-31T13:46:40;100530.46;;;10.28;33.57
58979;BME280;44763;50.464;30.612;2022-10-31T13:52:16;100534.55;;;10.20;33.30
58979;BME280;44763;50.464;30.612;2022-10-31T13:54:48;100543.06;;;10.15;33.28
58979;BME280;44763;50.464;30.612;2022-10-31T14:02:55;100550.45;;;10.09;33.04
58979;BME280;44763;50.464;30.612;2022-10-31T14:05:26;100543.32;;;10.05;33.28
58979;BME280;44763;50.464;30.612;2022-10-31T14:07:56;100552.81;;;10.04;33.18
58979;BME280;44763;50.464;30.612;2022-10-31T14:10:27;100551.48;;;10.04;33.33
58979;BME280;44763;50.464;30.612;2022-10-31T14:15:55;100558.66;;;10.03;33.67
58979;BME280;44763;50.464;30.612;2022-10-31T14:18:37;100564.16;;;10.02;33.74
58979;BME280;44763;50.464;30.612;2022-10-31T14:21:25;100564.16;;;10.02;34.01
58979;BME280;44763;50.464;30.612;2022-10-31T14:23:52;100563.84;;;10.01;34.02
58979;BME280;44763;50.464;30.612;2022-10-31T14:26:31;100569.21;;;9.97;33.97
58979;BME280;44763;50.464;30.612;2022-10-31T14:29:24;100566.38;;;9.94;34.04
58979;BME280;44763;50.464;30.612;2022-10-31T14:31:51;100577.88;;;9.94;34.17
58979;BME280;44763;50.464;30.612;2022-10-31T14:34:42;100580.03;;;9.95;34.34
58979;BME280;44763;50.464;30.612;2022-10-31T14:40:37;100578.88;;;9.93;34.71
58979;BME280;44763;50.464;30.612;2022-10-31T14:46:39;100583.94;;;9.84;35.05
58979;BME280;44763;50.464;30.612;2022-10-31T14:49:32;100586.16;;;9.77;35.30
58979;BME280;44763;50.464;30.612;2022-10-31T14:52:07;100585.36;;;9.72;35.53
58979;BME280;44763;50.464;30.612;2022-10-31T14:54:37;100596.35;;;9.69;35.55
58979;BME280;44763;50.464;30.612;2022-10-31T14:57:14;100600.52;;;9.67;35.69
58979;BME280;44763;50.464;30.612;2022-10-31T14:59:50;100601.70;;;9.65;35.76
58979;BME280;44763;50.464;30.612;2022-10-31T15:02:24;100602.56;;;9.61;36.00
58979;BME280;44763;50.464;30.612;2022-10-31T15:05:05;100596.92;;;9.56;36.31
58979;BME280;44763;50.464;30.612;2022-10-31T15:07:35;100603.44;;;9.53;36.36
58979;BME280;44763;50.464;30.612;2022-10-31T15:10:15;100610.77;;;9.51;36.28
58979;BME280;44763;50.464;30.612;2022-10-31T15:12:36;100608.78;;;9.49;36.61
58979;BME280;44763;50.464;30.612;2022-10-31T15:15:17;100617.62;;;9.46;36.43
58979;BME280;44763;50.464;30.612;2022-10-31T15:17:57;100618.12;;;9.41;36.47
58979;BME280;44763;50.464;30.612;2022-10-31T15:20:25;100619.14;;;9.40;36.64
58979;BME280;44763;50.464;30.612;2022-10-31T15:22:57;100626.27;;;9.40;36.64
58979;BME280;44763;50.464;30.612;2022-10-31T15:25:32;100627.29;;;9.39;36.79
58979;BME280;44763;50.464;30.612;2022-10-31T15:27:59;100628.45;;;9.36;36.84
58979;BME280;44763;50.464;30.612;2022-10-31T15:30:27;100636.11;;;9.35;36.84
58979;BME280;44763;50.464;30.612;2022-10-31T15:32:55;100637.13;;;9.30;36.91
58979;BME280;44763;50.464;30.612;2022-10-31T15:35:26;100639.47;;;9.29;36.80
58979;BME280;44763;50.464;30.612;2022-10-31T15:37:56;100643.80;;;9.26;36.76
58979;BME280;44763;50.464;30.612;2022-10-31T15:40:26;100646.48;;;9.22;36.78
58979;BME280;44763;50.464;30.612;2022-10-31T15:42:57;100573.02;;;8.73;37.42
58979;BME280;44763;50.464;30.612;2022-10-31T15:45:29;100645.84;;;9.15;37.25
58979;BME280;44763;50.464;30.612;2022-10-31T15:48:03;100643.19;;;9.07;37.37
58979;BME280;44763;50.464;30.612;2022-10-31T15:50:40;100656.65;;;9.06;37.45
58979;BME280;44763;50.464;30.612;2022-10-31T15:53:18;100656.17;;;8.98;37.58
58979;BME280;44763;50.464;30.612;2022-10-31T15:55:57;100659.00;;;8.96;38.72
58979;BME280;44763;50.464;30.612;2022-10-31T15:58:28;100663.85;;;8.93;38.99
58979;BME280;44763;50.464;30.612;2022-10-31T16:01:03;100666.98;;;8.92;38.84
58979;BME280;44763;50.464;30.612;2022-10-31T16:03:32;100665.51;;;8.90;38.41
58979;BME280;44763;50.464;30.612;2022-10-31T16:06:02;100668.18;;;8.86;38.29
58979;BME280;44763;50.464;30.612;2022-10-31T16:08:34;100668.34;;;8.84;38.17
58979;BME280;44763;50.464;30.612;2022-10-31T16:13:57;100670.50;;;8.81;38.09
58979;BME280;44763;50.464;30.612;2022-10-31T16:16:46;100674.14;;;8.80;37.87
58979;BME280;44763;50.464;30.612;2022-10-31T16:19:32;100676.50;;;8.74;38.12
58979;BME280;44763;50.464;30.612;2022-10-31T16:22:09;100681.83;;;8.70;38.15
58979;BME280;44763;50.464;30.612;2022-10-31T16:27:20;100677.50;;;8.69;38.27
58979;BME280;44763;50.464;30.612;2022-10-31T16:29:52;100678.16;;;8.67;38.38
58979;BME280;44763;50.464;30.612;2022-10-31T16:37:53;100682.48;;;8.60;38.71
58979;BME280;44763;50.464;30.612;2022-10-31T16:40:20;100692.77;;;8.55;38.86
58979;BME280;44763;50.464;30.612;2022-10-31T16:42:46;100690.47;;;8.52;39.01
58979;BME280;44763;50.464;30.612;2022-10-31T16:45:21;100692.11;;;8.49;38.99
58979;BME280;44763;50.464;30.612;2022-10-31T16:47:48;100692.76;;;8.38;38.96
58979;BME280;44763;50.464;30.612;2022-10-31T16:50:19;100696.23;;;8.35;38.93
58979;BME280;44763;50.464;30.612;2022-10-31T16:52:50;100692.77;;;8.34;39.14
58979;BME280;44763;50.464;30.612;2022-10-31T16:55:18;100693.90;;;8.32;39.23
58979;BME280;44763;50.464;30.612;2022-10-31T16:57:48;100695.08;;;8.29;39.03
58979;BME280;44763;50.464;30.612;2022-10-31T17:00:19;100707.34;;;8.30;38.92
58979;BME280;44763;50.464;30.612;2022-10-31T17:02:48;100706.36;;;8.31;38.78
58979;BME280;44763;50.464;30.612;2022-10-31T17:05:18;100707.34;;;8.30;38.76
58979;BME280;44763;50.464;30.612;2022-10-31T17:07:45;100715.31;;;8.30;38.85
58979;BME280;44763;50.464;30.612;2022-10-31T17:10:12;100713.00;;;8.31;38.82
58979;BME280;44763;50.464;30.612;2022-10-31T17:12:43;100713.16;;;8.30;38.67
58979;BME280;44763;50.464;30.612;2022-10-31T17:15:21;100717.30;;;8.28;39.02
58979;BME280;44763;50.464;30.612;2022-10-31T17:17:52;100714.33;;;8.27;39.29
58979;BME280;44763;50.464;30.612;2022-10-31T17:22:56;100723.78;;;8.17;39.42
58979;BME280;44763;50.464;30.612;2022-10-31T17:25:26;100723.27;;;8.14;39.75
58979;BME280;44763;50.464;30.612;2022-10-31T17:27:53;100725.07;;;8.13;39.79
58979;BME280;44763;50.464;30.612;2022-10-31T17:30:21;100725.89;;;8.10;39.88
58979;BME280;44763;50.464;30.612;2022-10-31T17:32:48;100734.52;;;8.08;40.13
58979;BME280;44763;50.464;30.612;2022-10-31T17:35:17;100727.56;;;8.03;40.06
58979;BME280;44763;50.464;30.612;2022-10-31T17:37:44;100733.69;;;8.03;40.16
58979;BME280;44763;50.464;30.612;2022-10-31T17:40:15;100730.02;;;8.00;40.22
58979;BME280;44763;50.464;30.612;2022-10-31T17:42:48;100737.67;;;7.99;40.53
58979;BME280;44763;50.464;30.612;2022-10-31T17:45:17;100734.50;;;7.95;40.92
58979;BME280;44763;50.464;30.612;2022-10-31T17:47:46;100735.48;;;7.94;41.52
58979;BME280;44763;50.464;30.612;2022-10-31T17:50:15;100748.08;;;7.92;41.86
58979;BME280;44763;50.464;30.612;2022-10-31T17:52:42;100747.77;;;7.91;42.54
58979;BME280;44763;50.464;30.612;2022-10-31T17:55:09;100746.59;;;7.90;41.30
58979;BME280;44763;50.464;30.612;2022-10-31T17:57:36;100750.88;;;7.87;41.14
58979;BME280;44763;50.464;30.612;2022-10-31T18:00:05;100753.84;;;7.79;41.08
58979;BME280;44763;50.464;30.612;2022-10-31T18:02:40;100756.83;;;7.76;41.23
58979;BME280;44763;50.464;30.612;2022-10-31T18:05:09;100760.80;;;7.72;41.66
58979;BME280;44763;50.464;30.612;2022-10-31T18:07:36;100758.95;;;7.69;41.68
58979;BME280;44763;50.464;30.612;2022-10-31T18:10:03;100762.59;;;7.68;41.70
58979;BME280;44763;50.464;30.612;2022-10-31T18:12:31;100767.88;;;7.64;41.78
58979;BME280;44763;50.464;30.612;2022-10-31T18:14:59;100768.19;;;7.60;41.96
58979;BME280;44763;50.464;30.612;2022-10-31T18:17:25;100769.19;;;7.59;42.00
58979;BME280;44763;50.464;30.612;2022-10-31T18:19:54;100768.52;;;7.57;42.07
58979;BME280;44763;50.464;30.612;2022-10-31T18:22:21;100775.77;;;7.51;42.12
58979;BME280;44763;50.464;30.612;2022-10-31T18:24:48;100770.80;;;7.52;42.22
58979;BME280;44763;50.464;30.612;2022-10-31T18:27:14;100771.78;;;7.51;42.26
58979;BME280;44763;50.464;30.612;2022-10-31T18:29:41;100775.44;;;7.50;42.29
58979;BME280;44763;50.464;30.612;2022-10-31T18:32:08;100777.09;;;7.51;42.80
58979;BME280;44763;50.464;30.612;2022-10-31T18:34:35;100778.41;;;7.51;42.94
58979;BME280;44763;50.464;30.612;2022-10-31T18:37:01;100775.59;;;7.49;43.12
58979;BME280;44763;50.464;30.612;2022-10-31T18:39:28;100780.88;;;7.45;43.16
58979;BME280;44763;50.464;30.612;2022-10-31T18:41:55;100784.48;;;7.39;43.24
58979;BME280;44763;50.464;30.612;2022-10-31T18:44:22;100792.13;;;7.38;43.56
58979;BME280;44763;50.464;30.612;2022-10-31T18:46:48;100790.75;;;7.34;43.49
58979;BME280;44763;50.464;30.612;2022-10-31T18:49:14;100798.17;;;7.31;43.81
58979;BME280;44763;50.464;30.612;2022-10-31T18:51:42;100792.85;;;7.27;43.81
58979;BME280;44763;50.464;30.612;2022-10-31T18:54:09;100798.80;;;7.25;44.06
58979;BME280;44763;50.464;30.612;2022-10-31T18:56:37;100790.83;;;7.20;44.01
58979;BME280;44763;50.464;30.612;2022-10-31T18:59:03;100794.45;;;7.19;43.91
58979;BME280;44763;50.464;30.612;2022-10-31T19:01:29;100794.94;;;7.15;44.06
58979;BME280;44763;50.464;30.612;2022-10-31T19:03:57;100803.69;;;7.11;44.15
58979;BME280;44763;50.464;30.612;2022-10-31T19:06:26;100801.16;;;7.06;44.33
58979;BME280;44763;50.464;30.612;2022-10-31T19:09:03;100805.48;;;7.07;44.58
58979;BME280;44763;50.464;30.612;2022-10-31T19:11:31;100811.44;;;7.05;44.70
58979;BME280;44763;50.464;30.612;2022-10-31T19:13:58;100814.91;;;7.05;44.87
58979;BME280;44763;50.464;30.612;2022-10-31T19:16:25;100816.73;;;7.05;44.97
58979;BME280;44763;50.464;30.612;2022-10-31T19:18:55;100820.86;;;7.03;45.17
58979;BME280;44763;50.464;30.612;2022-10-31T19:21:22;100822.48;;;7.00;45.36
58979;BME280;44763;50.464;30.612;2022-10-31T22:36:37;100889.06;;;5.76;57.96
58979;BME280;44763;50.464;30.612;2022-10-31T22:39:05;100895.54;;;5.78;57.52
58979;BME280;44763;50.464;30.612;2022-10-31T22:41:33;100893.75;;;5.69;57.66
58979;BME280;44763;50.464;30.612;2022-10-31T22:44:03;100900.80;;;5.64;57.71
58979;BME280;44763;50.464;30.612;2022-10-31T22:46:33;100904.85;;;5.58;57.76
58979;BME280;44763;50.464;30.612;2022-10-31T22:49:04;100902.92;;;5.51;58.07